Latest Coastal Weather Observations for Rosslyn Bay Harbour

IDQ60701

Issued at 10:05 am EST Sunday 21 September 2014 (issued every 10 minutes, with the page automatically refreshed every 10 minutes)

About coastal observations | Map of coastal stations | Coastal observations for QLD | Marine services | Other Formats
Station Details ID: 033208 Name: ROSSLYN BAY NTC AWS Lat: -23.16 Lon: 150.79 Height: 0.0 m
Data from the previous 72 hours. | See also: Recent months for locations in Queensland
Date/Time
EST
Temp

°C
Wind Pressure Rain
since 9am
mm
Weather Cloud Vis
km
Sea
Height
m
Swell
Dir
 
Speed
knots
Gust
knots
hPa Trend Height
m
Period
s
Dir
21/10:00am 21.0 SSW 7 14 1022.3 - - - - - - - - -
21/09:30am 22.5 WSW 4 11 1021.9 - - - - - - - - -
21/09:00am 22.3 NW 5 15 1021.8 - - - - - - - - -
21/08:30am 22.1 NNE 5 14 1021.7 - - - - - - - - -
21/08:00am 22.1 SW 5 11 1021.7 - - - - - - - - -
21/07:30am 21.9 WSW 5 17 1021.1 - - - - - - - - -
21/07:00am 21.6 WSW 4 10 1021.1 - - - - - - - - -
21/06:30am 21.6 SW 5 11 1020.9 - - - - - - - - -
21/06:00am 21.4 WSW 3 7 1020.4 - - - - - - - - -
21/05:30am 21.4 SW 3 8 1020.0 - - - - - - - - -
21/05:00am 21.5 SW 4 9 1019.8 - - - - - - - - -
21/04:30am 21.4 WSW 5 11 1019.3 - - - - - - - - -
21/04:00am 21.4 WSW 5 10 1019.2 - - - - - - - - -
21/03:30am 21.5 WSW 5 10 1019.0 - - - - - - - - -
21/03:00am 21.5 SW 4 8 1019.0 - - - - - - - - -
21/02:30am 21.5 SW 4 13 1019.1 - - - - - - - - -
21/02:00am 21.7 WSW 4 9 1019.3 - - - - - - - - -
21/01:30am 21.6 S 4 11 1019.6 - - - - - - - - -
21/01:00am 21.7 SSW 3 9 1019.9 - - - - - - - - -
21/12:30am 21.6 SSE 3 8 1020.0 - - - - - - - - -
21/12:00am 21.7 E 3 12 1019.9 - - - - - - - - -
 
Date/Time
EST
Temp

°C
Wind Pressure Rain
since 9am
mm
Weather Cloud Vis
km
Sea
Height
m
Swell
Dir
 
Speed
knots
Gust
knots
hPa Trend Height
m
Period
s
Dir
20/11:30pm 21.8 E 5 12 1019.9 - - - - - - - - -
20/11:00pm 21.8 ENE 8 15 1019.9 - - - - - - - - -
20/10:30pm 21.9 ENE 8 15 1020.0 - - - - - - - - -
20/10:00pm 22.0 ENE 9 14 1020.1 - - - - - - - - -
20/09:30pm 22.1 ENE 9 15 1020.1 - - - - - - - - -
20/09:00pm 22.1 ENE 7 13 1020.1 - - - - - - - - -
20/08:30pm 22.2 ENE 7 12 1019.6 - - - - - - - - -
20/08:00pm 22.1 E 4 12 1019.3 - - - - - - - - -
20/07:30pm 22.1 ENE 7 14 1018.9 - - - - - - - - -
20/07:00pm 22.2 ENE 7 12 1018.6 - - - - - - - - -
20/06:30pm 22.1 ENE 8 14 1018.0 - - - - - - - - -
20/06:00pm 22.1 ENE 8 15 1017.2 - - - - - - - - -
20/05:30pm 22.2 ENE 6 14 1016.7 - - - - - - - - -
20/05:00pm 22.3 ENE 7 15 1016.5 - - - - - - - - -
20/04:30pm 22.6 ESE 3 11 1016.2 - - - - - - - - -
20/04:00pm 22.9 E 5 15 1015.9 - - - - - - - - -
20/03:30pm 23.0 E 5 14 1015.7 - - - - - - - - -
20/03:00pm 23.2 E 3 9 1015.8 - - - - - - - - -
20/02:30pm 23.2 WNW 4 12 1015.9 - - - - - - - - -
20/02:00pm 23.2 SSE 4 12 1016.4 - - - - - - - - -
20/01:30pm 23.2 ESE 2 9 1016.9 - - - - - - - - -
20/01:00pm 22.8 SW 3 8 1017.4 - - - - - - - - -
20/12:30pm 22.8 SSE 2 6 1017.7 - - - - - - - - -
20/12:00pm 23.3 SE 2 10 1018.1 - - - - - - - - -
20/11:30am 22.9 WSW 3 7 1018.6 - - - - - - - - -
20/11:00am 22.3 WSW 2 7 1018.8 - - - - - - - - -
20/10:30am 22.1 WNW 2 5 1019.2 - - - - - - - - -
20/10:00am 21.7 S 5 9 1019.7 - - - - - - - - -
20/09:30am 21.7 S 6 10 1019.9 - - - - - - - - -
20/09:00am 21.2 S 5 8 1019.9 - - - - - - - - -
20/08:30am 21.5 S 4 6 1019.7 - - - - - - - - -
20/08:00am 20.8 S 3 7 1019.7 - - - - - - - - -
20/07:30am 19.7 S 4 6 1019.3 - - - - - - - - -
20/07:00am 19.2 SSE 3 5 1018.8 - - - - - - - - -
20/06:30am 18.1 SSE 4 6 1018.4 - - - - - - - - -
20/06:00am 17.8 S 4 6 1018.1 - - - - - - - - -
20/05:30am 17.6 S 5 8 1017.8 - - - - - - - - -
20/05:00am 18.6 S 4 6 1017.4 - - - - - - - - -
20/04:30am 20.4 NNW 2 4 1016.8 - - - - - - - - -
20/04:00am 20.2 N 4 6 1016.3 - - - - - - - - -
20/03:30am 20.3 N 4 5 1016.4 - - - - - - - - -
20/03:00am 20.3 N 4 6 1016.5 - - - - - - - - -
20/02:30am 20.4 N 5 7 1016.7 - - - - - - - - -
20/02:00am 20.6 N 6 9 1016.9 - - - - - - - - -
20/01:30am 21.6 NNE 11 15 1017.1 - - - - - - - - -
20/01:00am 21.6 NNE 11 15 1017.1 - - - - - - - - -
20/12:30am 21.6 NNE 10 15 1017.5 - - - - - - - - -
20/12:00am 21.6 NNE 10 14 1017.8 - - - - - - - - -
 
Date/Time
EST
Temp

°C
Wind Pressure Rain
since 9am
mm
Weather Cloud Vis
km
Sea
Height
m
Swell
Dir
 
Speed
knots
Gust
knots
hPa Trend Height
m
Period
s
Dir
19/11:30pm 21.8 NNE 9 14 1018.1 - - - - - - - - -
19/11:00pm 21.8 NE 11 18 1018.2 - - - - - - - - -
19/10:30pm 21.8 NE 11 17 1018.1 - - - - - - - - -
19/10:00pm 21.9 NE 10 17 1018.2 - - - - - - - - -
19/09:30pm 21.9 NE 10 16 1018.5 - - - - - - - - -
19/09:00pm 21.8 NNE 11 15 1018.6 - - - - - - - - -
19/08:30pm 21.9 NNE 10 13 1018.7 - - - - - - - - -
19/08:00pm 21.9 NNE 9 12 1018.5 - - - - - - - - -
19/07:30pm 22.0 NNE 10 14 1018.3 - - - - - - - - -
19/07:00pm 22.1 NNE 10 13 1017.9 - - - - - - - - -
19/06:30pm 22.1 NNE 10 14 1017.3 - - - - - - - - -
19/06:00pm 22.0 NE 11 16 1017.0 - - - - - - - - -
19/05:30pm 22.0 NE 12 15 1016.8 - - - - - - - - -
19/05:00pm 22.2 ENE 10 14 1016.3 - - - - - - - - -
19/04:30pm 22.2 ENE 10 16 1016.0 - - - - - - - - -
19/04:00pm 22.5 ENE 8 14 1015.8 - - - - - - - - -
19/03:30pm 22.7 ENE 6 14 1015.8 - - - - - - - - -
19/03:00pm 22.9 E 4 12 1015.9 - - - - - - - - -
19/02:30pm 22.9 ESE 3 10 1016.5 - - - - - - - - -
19/02:00pm 22.5 SSW 3 7 1016.8 - - - - - - - - -
19/01:30pm 21.8 S 6 11 1017.1 - - - - - - - - -
19/01:00pm 22.2 S 4 8 1017.5 - - - - - - - - -
19/12:30pm 22.5 S 2 5 1018.2 - - - - - - - - -
19/12:00pm 21.8 S 5 9 1018.8 - - - - - - - - -
19/11:30am 21.9 S 6 11 1019.1 - - - - - - - - -
19/11:00am 21.4 S 8 12 1019.7 - - - - - - - - -
19/10:30am 21.0 S 8 12 1020.1 - - - - - - - - -
19/10:00am 20.9 S 6 10 1020.3 - - - - - - - - -
19/09:30am 20.8 S 6 10 1020.7 - - - - - - - - -
19/09:00am 20.4 S 6 10 1020.8 - - - - - - - - -
19/08:30am 20.5 S 5 8 1020.7 - - - - - - - - -
19/08:00am 20.0 S 5 7 1020.5 - - - - - - - - -
19/07:30am 19.1 S 3 5 1020.2 - - - - - - - - -
19/07:00am 17.3 S 4 6 1019.7 - - - - - - - - -
19/06:30am 16.6 S 4 6 1019.5 - - - - - - - - -
19/06:00am 16.6 S 5 8 1019.2 - - - - - - - - -
19/05:30am 16.6 S 5 7 1019.0 - - - - - - - - -
19/05:00am 16.9 S 4 6 1018.7 - - - - - - - - -
19/04:30am 17.4 S 4 6 1018.4 - - - - - - - - -
19/04:00am 17.7 S 4 6 1018.0 - - - - - - - - -
19/03:30am 18.0 S 3 5 1017.8 - - - - - - - - -
19/03:00am 18.1 S 3 4 1017.9 - - - - - - - - -
19/02:30am 18.4 S 3 5 1018.0 - - - - - - - - -
19/02:00am 18.4 S 3 4 1018.3 - - - - - - - - -
19/01:30am 18.7 S 4 5 1018.4 - - - - - - - - -
19/01:00am 19.0 S 2 4 1018.5 - - - - - - - - -
19/12:30am 19.2 SSW 2 4 1018.7 - - - - - - - - -
19/12:00am 18.8 SSW 1 2 1018.8 - - - - - - - - -
 
Date/Time
EST
Temp

°C
Wind Pressure Rain
since 9am
mm
Weather Cloud Vis
km
Sea
Height
m
Swell
Dir
 
Speed
knots
Gust
knots
hPa Trend Height
m
Period
s
Dir
18/11:30pm 19.6 S 4 4 1018.8 - - - - - - - - -
18/11:00pm 19.1 S 3 4 1018.9 - - - - - - - - -
18/10:30pm 18.9 S 4 5 1018.9 - - - - - - - - -
18/10:00pm 19.2 S 4 5 1019.1 - - - - - - - - -
18/09:30pm 20.0 S 2 5 1018.9 - - - - - - - - -
18/09:00pm 20.3 S 3 4 1018.8 - - - - - - - - -
18/08:30pm 21.8 NNE 2 3 1018.5 - - - - - - - - -
18/08:00pm 21.8 NE 2 4 1018.1 - - - - - - - - -
18/07:30pm 22.0 NE 5 7 1017.7 - - - - - - - - -
18/07:00pm 22.1 NE 4 9 1017.4 - - - - - - - - -
18/06:30pm 22.1 E 2 6 1017.0 - - - - - - - - -
18/06:00pm 22.3 E 3 9 1016.7 - - - - - - - - -
18/05:30pm 22.3 ENE 4 11 1016.4 - - - - - - - - -
18/05:00pm 22.6 E 4 11 1016.2 - - - - - - - - -
18/04:30pm 22.7 ENE 6 12 1015.9 - - - - - - - - -
18/04:00pm 22.6 ENE 8 14 1015.7 - - - - - - - - -
18/03:30pm 22.8 ENE 7 14 1015.5 - - - - - - - - -
18/03:00pm 23.2 E 4 11 1015.6 - - - - - - - - -
18/02:30pm 23.1 E 5 14 1015.8 - - - - - - - - -
18/02:00pm 23.3 E 3 11 1016.2 - - - - - - - - -
18/01:30pm 23.5 E 2 7 1016.6 - - - - - - - - -
18/01:00pm 23.1 E 3 8 1017.1 - - - - - - - - -
18/12:30pm 22.6 W 3 7 1017.5 - - - - - - - - -
18/12:00pm 22.8 SW 3 9 1017.9 - - - - - - - - -
18/11:30am 22.6 SW 3 7 1018.5 - - - - - - - - -
18/11:00am 22.9 SSW 3 9 1019.0 - - - - - - - - -
18/10:30am 22.4 S 6 10 1019.3 - - - - - - - - -

Other Formats:

Comma delimited format used in spreadsheet applications
http://www.bom.gov.au/fwo/IDQ60701/IDQ60701.95298.axf

JavaScript Object Notation format (JSON) in row-major order
http://www.bom.gov.au/fwo/IDQ60701/IDQ60701.95298.json